createdAt,value
2023-05-12T07:42:01.618Z,95269.81
2023-05-12T07:44:33.325Z,95279.13
2023-05-12T07:47:02.861Z,95266.13
2023-05-12T07:49:32.583Z,95269.03
2023-05-12T07:52:02.187Z,95279.50
2023-05-12T07:54:32.142Z,95268.16
2023-05-12T07:57:03.028Z,95271.06
2023-05-12T07:59:32.559Z,95269.91
2023-05-12T08:02:02.219Z,95271.25
2023-05-12T08:04:32.040Z,95272.00
2023-05-12T08:07:01.750Z,95271.19
2023-05-12T08:09:31.278Z,95273.88
2023-05-12T08:12:02.446Z,95277.88
2023-05-12T08:14:31.979Z,95269.75
2023-05-12T08:17:01.501Z,95264.03
2023-05-12T08:19:31.056Z,95265.56
2023-05-12T08:22:00.840Z,95268.72
2023-05-12T08:24:30.345Z,95266.53
2023-05-12T08:26:59.944Z,95268.09
2023-05-12T08:29:30.813Z,95268.28
2023-05-12T08:32:00.485Z,95268.97
2023-05-12T08:34:30.981Z,95273.00
2023-05-12T08:37:00.586Z,95274.31
2023-05-12T08:39:31.129Z,95281.63
2023-05-12T08:42:18.859Z,95276.56
2023-05-12T08:44:50.553Z,95283.84
2023-05-12T08:47:22.900Z,95274.66
2023-05-12T08:50:03.153Z,95279.78
2023-05-12T08:52:36.970Z,95280.31
2023-05-12T08:55:09.486Z,95285.19
2023-05-12T08:57:39.871Z,95291.16
2023-05-12T09:00:13.312Z,95276.84
2023-05-12T09:02:52.811Z,95283.66
2023-05-12T09:05:23.680Z,95287.66
2023-05-12T09:07:55.752Z,95283.84
2023-05-12T09:10:35.275Z,95287.06
2023-05-12T09:13:15.613Z,95290.59
2023-05-12T09:15:49.481Z,95291.91
2023-05-12T09:18:19.015Z,95290.00
2023-05-12T09:20:48.545Z,95298.91
2023-05-12T09:23:20.508Z,95292.72
2023-05-12T09:26:02.053Z,95295.47
2023-05-12T09:28:39.540Z,95289.34
2023-05-12T09:31:22.454Z,95298.03
2023-05-12T09:33:53.451Z,95292.38
2023-05-12T09:36:25.593Z,95305.31
2023-05-12T09:39:04.607Z,95298.25
2023-05-12T09:41:37.900Z,95299.06
2023-05-12T09:44:09.541Z,95297.97
2023-05-12T09:46:40.865Z,95304.13
2023-05-12T09:49:10.501Z,95304.66
2023-05-12T09:51:41.411Z,95297.97
2023-05-12T09:54:11.116Z,95304.47
2023-05-12T09:56:41.976Z,95301.75
2023-05-12T09:59:14.318Z,95307.22
2023-05-12T10:01:45.532Z,95299.44
2023-05-12T10:04:15.899Z,95302.19
2023-05-12T10:06:47.401Z,95307.59
2023-05-12T10:09:21.995Z,95304.66
2023-05-12T10:11:53.982Z,95301.97
2023-05-12T10:14:24.977Z,95299.31
2023-05-12T10:16:56.796Z,95292.91
2023-05-12T10:19:27.877Z,95301.00
2023-05-12T10:22:01.359Z,95299.69
2023-05-12T10:24:30.859Z,95297.50
2023-05-12T10:27:01.542Z,95292.34
2023-05-12T10:29:32.881Z,95298.75
2023-05-12T10:32:04.370Z,95306.28
2023-05-12T10:34:37.285Z,95309.78
2023-05-12T10:37:09.120Z,95298.69
2023-05-12T10:39:48.279Z,95305.13
2023-05-12T10:42:25.726Z,95301.06
2023-05-12T10:44:57.322Z,95301.56
2023-05-12T10:47:39.107Z,95303.13
2023-05-12T10:50:13.547Z,95300.94
2023-05-12T10:52:54.747Z,95307.88
2023-05-12T10:55:34.827Z,95297.88
2023-05-12T10:58:12.259Z,95304.81
2023-05-12T11:00:48.632Z,95306.09
2023-05-12T11:03:27.073Z,95310.53
2023-05-12T11:06:02.888Z,95306.97
2023-05-12T11:08:35.719Z,95310.41
2023-05-12T11:11:06.485Z,95313.28
2023-05-12T11:14:10.131Z,95314.84
2023-05-12T11:16:44.385Z,95313.00
2023-05-12T11:19:15.452Z,95316.44
2023-05-12T11:21:45.053Z,95313.16
2023-05-12T11:24:16.856Z,95313.97
2023-05-12T11:27:14.840Z,95321.25
2023-05-12T11:29:47.212Z,95325.28
2023-05-12T11:32:17.627Z,95318.28
2023-05-12T11:34:48.736Z,95325.03
2023-05-12T11:37:21.730Z,95323.44
2023-05-12T11:39:52.938Z,95325.69
2023-05-12T11:42:25.094Z,95326.06
2023-05-12T11:44:55.557Z,95322.38
2023-05-12T11:47:26.353Z,95323.34
2023-05-12T11:49:57.338Z,95322.06
2023-05-12T11:52:28.309Z,95321.31
2023-05-12T11:55:01.327Z,95321.38
2023-05-12T11:57:33.346Z,95324.44
2023-05-12T12:00:06.945Z,95321.22
2023-05-12T12:02:39.707Z,95329.38
2023-05-12T12:05:21.111Z,95337.25
2023-05-12T12:07:50.844Z,95331.59
2023-05-12T12:10:21.796Z,95325.16
2023-05-12T12:12:51.324Z,95322.22
2023-05-12T12:15:21.087Z,95326.31
2023-05-12T12:17:50.855Z,95337.09
2023-05-12T12:20:21.915Z,95329.59
2023-05-12T12:22:51.851Z,95321.78
2023-05-12T12:25:22.182Z,95330.44
2023-05-12T12:27:52.971Z,95329.94
2023-05-12T12:30:22.845Z,95336.13
2023-05-12T12:32:52.351Z,95339.13
2023-05-12T12:35:24.375Z,95336.13
2023-05-12T12:37:54.198Z,95334.25
2023-05-12T12:40:24.757Z,95334.75
2023-05-12T12:42:54.236Z,95330.69
2023-05-12T12:45:24.142Z,95326.31
2023-05-12T12:47:54.844Z,95334.63
2023-05-12T12:50:27.309Z,95334.00
2023-05-12T12:52:56.983Z,95334.25
2023-05-12T12:55:26.694Z,95333.13
2023-05-12T12:57:56.276Z,95335.44
2023-05-12T13:00:26.944Z,95335.09
2023-05-12T13:02:57.214Z,95330.75
2023-05-12T13:05:28.166Z,95335.00
2023-05-12T13:07:57.674Z,95336.84
2023-05-12T13:10:27.426Z,95337.56
2023-05-12T13:12:57.216Z,95334.56
2023-05-12T13:15:26.994Z,95335.66
2023-05-12T13:17:56.635Z,95319.97
2023-05-12T13:20:28.755Z,95331.88
2023-05-12T13:22:58.415Z,95330.78
2023-05-12T13:25:27.880Z,95332.66
2023-05-12T13:27:57.408Z,95325.38
2023-05-12T13:30:27.307Z,95329.44
2023-05-12T13:32:56.871Z,95338.97
2023-05-12T13:35:28.037Z,95325.28
2023-05-12T13:37:57.680Z,95332.34
2023-05-12T13:40:27.294Z,95331.09
2023-05-12T13:42:56.794Z,95333.63
2023-05-12T13:45:27.339Z,95335.34
2023-05-12T13:47:57.467Z,95329.47
2023-05-12T13:50:28.464Z,95322.75
2023-05-12T13:52:58.072Z,95332.75
2023-05-12T13:55:27.739Z,95327.06
2023-05-12T13:57:57.305Z,95337.56
2023-05-12T14:00:29.804Z,95331.09
2023-05-12T14:02:59.368Z,95330.50
2023-05-12T14:05:30.412Z,95327.81
2023-05-12T14:08:00.175Z,95322.66
2023-05-12T14:10:30.132Z,95325.63
2023-05-12T14:12:59.768Z,95329.66
2023-05-12T14:15:40.490Z,95327.94
2023-05-12T14:18:17.490Z,95326.19
2023-05-12T14:20:48.699Z,95327.47
2023-05-12T14:23:18.257Z,95323.34
2023-05-12T14:25:47.776Z,95329.44
2023-05-12T14:28:17.375Z,95330.72
2023-05-12T14:30:49.561Z,95326.06
2023-05-12T14:33:19.115Z,95326.78
2023-05-12T14:35:59.368Z,95329.44
2023-05-12T14:38:36.491Z,95335.84
2023-05-12T14:41:08.097Z,95330.97
2023-05-12T14:43:38.302Z,95319.88
2023-05-12T14:46:08.722Z,95323.84
2023-05-12T14:48:39.958Z,95323.78
2023-05-12T14:51:11.311Z,95327.91
2023-05-12T14:53:40.885Z,95320.59
2023-05-12T14:56:10.524Z,95320.09
2023-05-12T14:58:40.049Z,95332.91
2023-05-12T15:01:09.782Z,95332.69
2023-05-12T15:03:39.547Z,95329.53
2023-05-12T15:06:10.889Z,95334.13
2023-05-12T15:08:40.477Z,95332.53
2023-05-12T15:11:10.003Z,95333.44
2023-05-12T15:13:39.456Z,95331.53
2023-05-12T15:16:09.165Z,95334.13
2023-05-12T15:18:38.689Z,95345.41
2023-05-12T15:21:08.324Z,95337.44
2023-05-12T15:23:39.301Z,95342.75
2023-05-12T15:26:21.113Z,95333.84
2023-05-12T15:28:58.662Z,95336.25
2023-05-12T15:31:30.052Z,95333.75
2023-05-12T15:34:00.623Z,95342.09
2023-05-12T15:36:30.895Z,95330.91
2023-05-12T15:39:03.054Z,95335.16
2023-05-12T15:41:32.811Z,95343.28
2023-05-12T15:44:02.886Z,95344.22
2023-05-12T15:46:32.499Z,95336.97
2023-05-12T15:49:02.160Z,95347.06
2023-05-12T15:51:33.801Z,95345.75
2023-05-12T15:54:06.968Z,95340.50
2023-05-12T15:56:37.566Z,95341.66
2023-05-12T15:59:07.499Z,95347.41
2023-05-12T16:01:37.254Z,95348.34
2023-05-12T16:04:06.939Z,95355.66
2023-05-12T16:06:36.933Z,95352.22
2023-05-12T16:09:08.133Z,95354.16
2023-05-12T16:11:37.627Z,95349.09
2023-05-12T16:14:07.352Z,95340.84
2023-05-12T16:16:37.532Z,95344.38
2023-05-12T16:19:07.265Z,95345.50
2023-05-12T16:21:36.775Z,95347.75
2023-05-12T16:24:09.185Z,95354.00
2023-05-12T16:26:39.027Z,95357.03
2023-05-12T16:29:08.633Z,95345.22
2023-05-12T16:31:38.637Z,95349.63
2023-05-12T16:34:08.211Z,95354.00
2023-05-12T16:36:37.717Z,95347.56
2023-05-12T16:39:09.442Z,95346.00
2023-05-12T16:41:39.007Z,95342.00
2023-05-12T16:44:08.573Z,95355.25
2023-05-12T16:46:40.775Z,95353.13
2023-05-12T16:49:11.133Z,95344.78
2023-05-12T16:51:40.534Z,95352.09
2023-05-12T16:54:11.584Z,95349.13
2023-05-12T16:56:41.119Z,95355.66
2023-05-12T16:59:10.606Z,95356.75
2023-05-12T17:01:40.211Z,95363.78
2023-05-12T17:04:11.904Z,95362.81
2023-05-12T17:06:41.767Z,95363.91
2023-05-12T17:09:12.677Z,95358.28
2023-05-12T17:11:42.331Z,95358.84
2023-05-12T17:14:12.483Z,95367.75
2023-05-12T17:16:42.077Z,95364.81
2023-05-12T17:19:14.933Z,95361.34
2023-05-12T17:21:44.405Z,95364.06
2023-05-12T17:24:15.321Z,95367.06
2023-05-12T17:26:44.868Z,95366.00
2023-05-12T17:29:14.406Z,95367.09
2023-05-12T17:31:44.800Z,95364.69
2023-05-12T17:34:14.333Z,95369.84
2023-05-12T17:36:44.431Z,95368.81
2023-05-12T17:39:15.966Z,95369.38
2023-05-12T17:41:45.656Z,95372.34
2023-05-12T17:44:15.345Z,95374.78
2023-05-12T17:46:44.894Z,95372.91
2023-05-12T17:49:14.488Z,95377.22
2023-05-12T17:51:44.455Z,95380.75
2023-05-12T17:54:15.386Z,95377.81
2023-05-12T17:56:44.863Z,95380.25
2023-05-12T17:59:14.415Z,95383.50
2023-05-12T18:01:43.977Z,95381.38
2023-05-12T18:04:13.900Z,95389.47
2023-05-12T18:06:43.840Z,95389.75
2023-05-12T18:09:14.768Z,95386.50
2023-05-12T18:11:44.641Z,95388.94
2023-05-12T18:14:14.224Z,95389.22
2023-05-12T18:16:44.143Z,95394.06
2023-05-12T18:19:13.947Z,95393.28
2023-05-12T18:21:43.493Z,95395.19
2023-05-12T18:24:14.427Z,95389.25
2023-05-12T18:26:44.563Z,95394.13
2023-05-12T18:29:14.304Z,95402.75
2023-05-12T18:31:44.176Z,95400.63
2023-05-12T18:34:13.964Z,95404.13
2023-05-12T18:36:44.360Z,95407.09
2023-05-12T18:39:16.195Z,95400.38
2023-05-12T18:41:46.307Z,95407.09
2023-05-12T18:44:16.063Z,95403.88
2023-05-12T18:46:45.961Z,95413.03
2023-05-12T18:49:15.517Z,95411.69
2023-05-12T18:51:45.059Z,95410.34
2023-05-12T18:54:15.986Z,95408.19
2023-05-12T18:56:47.322Z,95406.59
2023-05-12T18:59:16.868Z,95408.75
2023-05-12T19:01:47.211Z,95409.03
2023-05-12T19:04:16.831Z,95410.38
2023-05-12T19:06:46.702Z,95420.63
2023-05-12T19:09:18.157Z,95424.94
2023-05-12T19:11:48.001Z,95430.31
2023-05-12T19:14:17.750Z,95425.22
2023-05-12T19:16:47.306Z,95427.38
2023-05-12T19:19:17.324Z,95417.97
2023-05-12T19:21:46.871Z,95420.09
2023-05-12T19:24:17.788Z,95422.25
2023-05-12T19:26:47.224Z,95424.41
2023-05-12T19:29:17.802Z,95428.44
2023-05-12T19:31:47.465Z,95433.31
2023-05-12T19:34:17.078Z,95430.88
2023-05-12T19:36:46.680Z,95429.53
2023-05-12T19:39:17.733Z,95440.28
2023-05-12T19:41:47.608Z,95436.28
2023-05-12T19:44:17.800Z,95438.72
2023-05-12T19:46:47.840Z,95437.91
2023-05-12T19:49:17.537Z,95437.91
2023-05-12T19:51:48.633Z,95432.78
2023-05-12T19:54:19.435Z,95436.56
2023-05-12T19:56:48.983Z,95439.53
2023-05-12T19:59:18.731Z,95440.59
2023-05-12T20:01:49.230Z,95444.09
2023-05-12T20:04:18.837Z,95440.06
2023-05-12T20:06:48.341Z,95441.13
2023-05-12T20:09:20.747Z,95442.22
2023-05-12T20:11:50.503Z,95436.56
2023-05-12T20:14:19.987Z,95439.50
2023-05-12T20:16:49.522Z,95446.22
2023-05-12T20:19:19.039Z,95441.91
2023-05-12T20:21:48.546Z,95448.34
2023-05-12T20:24:19.426Z,95440.28
2023-05-12T20:26:49.787Z,95446.75
2023-05-12T20:29:20.938Z,95439.47
2023-05-12T20:31:51.550Z,95443.53
2023-05-12T20:34:21.162Z,95443.81
2023-05-12T20:36:50.768Z,95444.06
2023-05-12T20:39:21.604Z,95438.44
2023-05-12T20:41:51.081Z,95446.50
2023-05-12T20:44:21.119Z,95454.28
2023-05-12T20:46:50.862Z,95442.72
2023-05-12T20:49:20.546Z,95449.19
2023-05-12T20:51:50.240Z,95458.06
2023-05-12T20:54:21.092Z,95440.31
2023-05-12T20:56:50.669Z,95450.25
2023-05-12T20:59:20.385Z,95447.03
2023-05-12T21:01:49.914Z,95447.03
2023-05-12T21:04:19.573Z,95449.72
2023-05-12T21:06:49.369Z,95449.72
2023-05-12T21:09:21.086Z,95449.19
2023-05-12T21:11:50.567Z,95456.44
2023-05-12T21:14:20.096Z,95452.13
2023-05-12T21:16:49.542Z,95449.44
2023-05-12T21:19:19.052Z,95447.81
2023-05-12T21:21:48.524Z,95447.03
2023-05-12T21:24:18.004Z,95458.84
2023-05-12T21:26:48.875Z,95458.03
2023-05-12T21:29:18.304Z,95450.25
2023-05-12T21:31:48.320Z,95453.75
2023-05-12T21:34:17.834Z,95456.69
2023-05-12T21:36:47.662Z,95459.38
2023-05-12T21:39:17.167Z,95455.06
2023-05-12T21:41:48.026Z,95453.19
2023-05-12T21:44:17.688Z,95459.66
2023-05-12T21:46:47.347Z,95457.22
2023-05-12T21:49:16.971Z,95455.59
2023-05-12T21:51:46.641Z,95454.00
2023-05-12T21:54:16.085Z,95457.22
2023-05-12T21:56:45.508Z,95451.31
2023-05-12T21:59:16.337Z,95461.53
2023-05-12T22:01:46.082Z,95466.09
2023-05-12T22:04:16.563Z,95461.81
2023-05-12T22:06:45.997Z,95467.69
2023-05-12T22:09:15.973Z,95473.88
2023-05-12T22:11:46.368Z,95467.16
2023-05-12T22:14:17.362Z,95473.59
2023-05-12T22:16:47.052Z,95460.44
2023-05-12T22:19:17.449Z,95462.31
2023-05-12T22:21:47.052Z,95464.19
2023-05-12T22:24:16.824Z,95460.97
2023-05-12T22:26:46.460Z,95466.06
2023-05-12T22:29:17.435Z,95455.31
2023-05-12T22:31:47.254Z,95454.53
2023-05-12T22:34:16.836Z,95452.91
2023-05-12T22:36:47.085Z,95451.81
2023-05-12T22:39:16.563Z,95454.78
2023-05-12T22:41:45.986Z,95445.91
2023-05-12T22:44:16.903Z,95448.88
2023-05-12T22:46:46.496Z,95455.03
2023-05-12T22:49:15.997Z,95444.56
2023-05-12T22:51:45.609Z,95447.25
2023-05-12T22:54:15.119Z,95440.78
2023-05-12T22:56:44.760Z,95445.91
2023-05-12T22:59:14.274Z,95445.09
2023-05-12T23:01:45.075Z,95439.97
2023-05-12T23:04:14.575Z,95445.34
2023-05-12T23:06:44.161Z,95446.44
2023-05-12T23:09:13.701Z,95449.13
2023-05-12T23:11:43.155Z,95445.63
2023-05-12T23:14:12.703Z,95443.19
2023-05-12T23:16:42.252Z,95445.38
2023-05-12T23:19:13.186Z,95445.38
2023-05-12T23:21:42.778Z,95445.91
2023-05-12T23:24:12.277Z,95445.34
2023-05-12T23:26:42.402Z,95446.44
2023-05-12T23:29:11.876Z,95437.56
2023-05-12T23:31:41.383Z,95444.00
2023-05-12T23:34:12.382Z,95441.56
2023-05-12T23:36:41.835Z,95437.53
2023-05-12T23:39:11.383Z,95442.09
